This demonstration page uses our WeatherBlox Daily Observations layout. Learn more.

38.89511, -77.03637

Hourly Observations for April 29, 2015

Temp ( °F °C ) Dew Point ( °F °C ) Humidity (%) Winds ( mph kmh ) Pressure ( in mb ) Visibility ( mi km ) Precip ( " mm )
12:52 am 00:52 Mostly Clear 63 17.2 37 2.8 38 38 WNW 7 11 29.83 1010 10 16.0934 0 0
1:52 am 01:52 Mostly Clear 58 14.4 42 5.6 56 56 Calm 29.83 1010 10 16.0934 0 0
2:52 am 02:52 Mostly Clear 57 13.9 43 6.1 60 60 Calm 29.83 1010 10 16.0934 0 0
3:52 am 03:52 Mostly Clear 56 13.3 39 3.9 53 53 Calm 29.83 1010 10 16.0934 0 0
4:52 am 04:52 Mostly Clear 54 12.2 43 6.1 67 67 Calm 29.82 1010 10 16.0934 0 0
5:52 am 05:52 Mostly Clear 55 12.8 43 6.1 64 64 Calm 29.83 1010 10 16.0934 0 0
6:52 am 06:52 Mostly Sunny 54 12.2 43 6.1 67 67 NNE 5 7 29.82 1010 10 16.0934 0 0
7:52 am 07:52 Mostly Sunny 59 15 42 5.6 54 54 N 5 7 29.83 1010 10 16.0934 0 0
8:52 am 08:52 Mostly Sunny 63 17.2 43 6.1 48 48 N 7 11 29.83 1010 10 16.0934 0 0
9:52 am 09:52 Mostly Sunny 67 19.4 43 6.1 42 42 N 6 9 29.82 1010 10 16.0934 0 0
10:52 am 10:52 Partly Cloudy 69 20.6 42 5.6 38 38 E 3 6 29.8 1009 10 16.0934 0 0
11:52 am 11:52 Partly Cloudy 72 22.2 42 5.6 34 34 E 5 7 29.78 1009 10 16.0934 0 0
12:52 pm 12:52 Partly Cloudy 72 22.2 44 6.7 37 37 SSE 6 9 29.76 1008 10 16.0934 0 0
1:52 pm 13:52 Partly Cloudy 73 22.8 45 7.2 37 37 SSE 3 6 29.74 1007 10 16.0934 0 0
2:52 pm 14:52 Partly Cloudy 74 23.3 45 7.2 36 36 SSE 5 7 29.72 1007 10 16.0934 0 0
3:52 pm 15:52 Partly Cloudy 76 24.4 41 5 29 29 Calm 29.7 1006 10 16.0934 0 0
4:52 pm 16:52 Mostly Cloudy 72 22.2 44 6.7 37 37 S 6 9 29.69 1005 10 16.0934 0 0
5:52 pm 17:52 Mostly Cloudy 75 23.9 42 5.6 31 31 ESE 3 6 29.68 1005 10 16.0934 0 0
6:52 pm 18:52 Mostly Cloudy 74 23.3 39 3.9 28 28 NW 8 13 29.68 1005 10 16.0934 0 0
7:52 pm 19:52 Mostly Cloudy 71 21.7 41 5 34 34 N 3 6 29.68 1005 10 16.0934 0 0
8:52 pm 20:52 Mostly Cloudy 67 19.4 45 7.2 45 45 SSE 5 7 29.69 1005 10 16.0934 0 0
9:52 pm 21:52 Mostly Cloudy 64 17.8 48 8.9 56 56 S 9 15 29.7 1006 10 16.0934 0 0
10:52 pm 22:52 Mostly Cloudy 62 16.7 49 9.4 62 62 S 7 11 29.7 1006 10 16.0934 0 0
11:52 pm 23:52 Mostly Cloudy 61 16.1 47 8.3 60 60 S 7 11 29.7 1006 10 16.0934 0 0

Powered by AerisWeather